sensor_id;sensor_type;location;lat;lon;timestamp;pressure;altitude;pressure_sealevel;temperature;humidity
12077;BME280;12420;42.676;23.262;2022-12-26T00:00:00;95455.25;;;4.86;100.00
12077;BME280;12420;42.676;23.262;2022-12-26T00:02:27;95437.72;;;4.68;100.00
12077;BME280;12420;42.676;23.262;2022-12-26T00:04:54;95471.75;;;5.00;100.00
12077;BME280;12420;42.676;23.262;2022-12-26T00:07:24;95487.81;;;4.93;100.00
12077;BME280;12420;42.676;23.262;2022-12-26T00:09:51;95453.78;;;4.75;100.00
12077;BME280;12420;42.676;23.262;2022-12-26T00:12:18;95464.41;;;4.83;100.00
12077;BME280;12420;42.676;23.262;2022-12-26T00:14:45;95464.53;;;4.88;100.00
12077;BME280;12420;42.676;23.262;2022-12-26T00:17:11;95426.81;;;4.59;100.00
12077;BME280;12420;42.676;23.262;2022-12-26T00:19:38;95456.44;;;4.70;100.00
12077;BME280;12420;42.676;23.262;2022-12-26T00:22:05;95387.56;;;4.29;100.00
12077;BME280;12420;42.676;23.262;2022-12-26T00:24:35;95466.81;;;4.90;100.00
12077;BME280;12420;42.676;23.262;2022-12-26T00:27:02;95490.00;;;5.04;100.00
12077;BME280;12420;42.676;23.262;2022-12-26T00:29:29;95465.94;;;4.84;100.00
12077;BME280;12420;42.676;23.262;2022-12-26T00:31:55;95495.34;;;5.07;100.00
12077;BME280;12420;42.676;23.262;2022-12-26T00:34:22;95435.25;;;4.70;100.00
12077;BME280;12420;42.676;23.262;2022-12-26T00:36:49;95542.09;;;5.13;100.00
12077;BME280;12420;42.676;23.262;2022-12-26T00:39:16;95482.16;;;5.11;100.00
12077;BME280;12420;42.676;23.262;2022-12-26T00:41:44;95486.44;;;5.12;100.00
12077;BME280;12420;42.676;23.262;2022-12-26T00:44:12;95492.00;;;5.03;100.00
12077;BME280;12420;42.676;23.262;2022-12-26T00:46:39;95484.31;;;4.92;100.00
12077;BME280;12420;42.676;23.262;2022-12-26T00:49:05;95493.22;;;5.02;100.00
12077;BME280;12420;42.676;23.262;2022-12-26T00:51:32;95508.75;;;5.05;100.00
12077;BME280;12420;42.676;23.262;2022-12-26T00:53:59;95468.31;;;4.91;100.00
12077;BME280;12420;42.676;23.262;2022-12-26T00:56:26;95470.66;;;4.83;100.00
12077;BME280;12420;42.676;23.262;2022-12-26T00:58:54;95419.06;;;4.33;100.00
12077;BME280;12420;42.676;23.262;2022-12-26T01:01:22;95437.59;;;4.39;100.00
12077;BME280;12420;42.676;23.262;2022-12-26T01:03:49;95506.53;;;4.70;100.00
12077;BME280;12420;42.676;23.262;2022-12-26T01:06:17;95474.88;;;4.45;100.00
12077;BME280;12420;42.676;23.262;2022-12-26T01:08:43;95492.72;;;4.65;100.00
12077;BME280;12420;42.676;23.262;2022-12-26T01:11:13;95500.31;;;4.70;100.00
12077;BME280;12420;42.676;23.262;2022-12-26T01:13:41;95478.50;;;4.51;100.00
12077;BME280;12420;42.676;23.262;2022-12-26T01:16:09;95502.72;;;4.53;100.00
12077;BME280;12420;42.676;23.262;2022-12-26T01:18:36;95468.75;;;4.17;100.00
12077;BME280;12420;42.676;23.262;2022-12-26T01:21:04;95351.72;;;3.27;100.00
12077;BME280;12420;42.676;23.262;2022-12-26T01:23:31;95488.44;;;4.16;100.00
12077;BME280;12420;42.676;23.262;2022-12-26T01:25:58;95464.44;;;3.50;100.00
12077;BME280;12420;42.676;23.262;2022-12-26T01:28:25;95504.69;;;4.19;100.00
12077;BME280;12420;42.676;23.262;2022-12-26T01:30:51;95528.59;;;4.19;100.00
12077;BME280;12420;42.676;23.262;2022-12-26T01:33:20;95454.16;;;3.87;100.00
12077;BME280;12420;42.676;23.262;2022-12-26T01:35:51;95454.59;;;3.85;100.00
12077;BME280;12420;42.676;23.262;2022-12-26T01:38:19;95527.34;;;4.29;100.00
12077;BME280;12420;42.676;23.262;2022-12-26T01:40:47;95539.94;;;4.35;100.00
12077;BME280;12420;42.676;23.262;2022-12-26T01:43:47;95507.81;;;4.36;100.00
12077;BME280;12420;42.676;23.262;2022-12-26T01:46:15;95469.75;;;4.05;100.00
12077;BME280;12420;42.676;23.262;2022-12-26T01:48:43;95466.13;;;3.99;100.00
12077;BME280;12420;42.676;23.262;2022-12-26T01:51:11;95511.97;;;4.22;100.00
12077;BME280;12420;42.676;23.262;2022-12-26T01:53:42;95485.56;;;4.10;100.00
12077;BME280;12420;42.676;23.262;2022-12-26T01:56:14;95501.38;;;4.15;100.00
12077;BME280;12420;42.676;23.262;2022-12-26T01:58:46;95489.63;;;4.14;100.00
12077;BME280;12420;42.676;23.262;2022-12-26T02:01:14;95490.56;;;4.11;100.00
12077;BME280;12420;42.676;23.262;2022-12-26T02:03:44;95471.78;;;3.95;100.00
12077;BME280;12420;42.676;23.262;2022-12-26T02:06:29;95485.09;;;4.11;100.00
12077;BME280;12420;42.676;23.262;2022-12-26T02:08:57;95497.84;;;4.14;100.00
12077;BME280;12420;42.676;23.262;2022-12-26T02:11:28;95475.25;;;3.96;100.00
12077;BME280;12420;42.676;23.262;2022-12-26T02:13:58;95436.41;;;3.73;100.00
12077;BME280;12420;42.676;23.262;2022-12-26T02:16:25;95454.38;;;3.65;100.00
12077;BME280;12420;42.676;23.262;2022-12-26T02:18:54;95489.28;;;3.88;100.00
12077;BME280;12420;42.676;23.262;2022-12-26T02:21:42;95433.16;;;3.41;100.00
12077;BME280;12420;42.676;23.262;2022-12-26T02:24:45;95461.84;;;3.46;100.00
12077;BME280;12420;42.676;23.262;2022-12-26T02:27:21;95481.50;;;3.54;100.00
12077;BME280;12420;42.676;23.262;2022-12-26T02:30:02;95446.53;;;3.30;100.00
12077;BME280;12420;42.676;23.262;2022-12-26T02:35:45;95461.72;;;3.40;100.00
12077;BME280;12420;42.676;23.262;2022-12-26T02:38:27;95473.84;;;3.58;100.00
12077;BME280;12420;42.676;23.262;2022-12-26T02:41:01;95478.72;;;3.63;100.00
12077;BME280;12420;42.676;23.262;2022-12-26T02:43:36;95476.72;;;3.73;100.00
12077;BME280;12420;42.676;23.262;2022-12-26T02:46:13;95406.31;;;3.12;100.00
12077;BME280;12420;42.676;23.262;2022-12-26T02:49:05;95458.66;;;3.57;100.00
12077;BME280;12420;42.676;23.262;2022-12-26T02:51:48;95440.31;;;3.30;100.00
12077;BME280;12420;42.676;23.262;2022-12-26T02:54:37;95474.28;;;3.75;100.00
12077;BME280;12420;42.676;23.262;2022-12-26T02:57:29;95479.38;;;3.91;100.00
12077;BME280;12420;42.676;23.262;2022-12-26T03:00:16;95476.81;;;3.87;100.00
12077;BME280;12420;42.676;23.262;2022-12-26T03:03:02;95440.13;;;3.52;100.00
12077;BME280;12420;42.676;23.262;2022-12-26T03:05:50;95476.22;;;3.83;100.00
12077;BME280;12420;42.676;23.262;2022-12-26T03:08:39;95451.88;;;3.34;100.00
12077;BME280;12420;42.676;23.262;2022-12-26T03:11:28;95471.72;;;3.62;100.00
12077;BME280;12420;42.676;23.262;2022-12-26T03:14:16;95471.13;;;3.48;100.00
12077;BME280;12420;42.676;23.262;2022-12-26T03:16:49;95468.44;;;3.39;100.00
12077;BME280;12420;42.676;23.262;2022-12-26T03:19:36;95476.31;;;3.46;100.00
12077;BME280;12420;42.676;23.262;2022-12-26T03:22:22;95476.91;;;3.51;100.00
12077;BME280;12420;42.676;23.262;2022-12-26T03:24:59;95483.31;;;3.47;100.00
12077;BME280;12420;42.676;23.262;2022-12-26T03:27:44;95493.19;;;3.54;100.00
12077;BME280;12420;42.676;23.262;2022-12-26T03:30:11;95481.94;;;3.43;100.00
12077;BME280;12420;42.676;23.262;2022-12-26T03:32:56;95486.47;;;3.55;100.00
12077;BME280;12420;42.676;23.262;2022-12-26T03:35:25;95512.19;;;3.58;100.00
12077;BME280;12420;42.676;23.262;2022-12-26T03:37:54;95487.53;;;3.67;100.00
12077;BME280;12420;42.676;23.262;2022-12-26T03:40:44;95479.19;;;3.52;100.00
12077;BME280;12420;42.676;23.262;2022-12-26T03:43:48;95467.22;;;3.31;100.00
12077;BME280;12420;42.676;23.262;2022-12-26T03:46:43;95510.38;;;3.55;100.00
12077;BME280;12420;42.676;23.262;2022-12-26T03:49:35;95509.44;;;3.58;100.00
12077;BME280;12420;42.676;23.262;2022-12-26T03:52:27;95511.59;;;3.44;100.00
12077;BME280;12420;42.676;23.262;2022-12-26T03:55:19;95513.09;;;3.45;100.00
12077;BME280;12420;42.676;23.262;2022-12-26T03:58:12;95518.88;;;3.47;100.00
12077;BME280;12420;42.676;23.262;2022-12-26T04:01:02;95512.53;;;3.41;100.00
12077;BME280;12420;42.676;23.262;2022-12-26T04:03:50;95529.56;;;3.36;100.00
12077;BME280;12420;42.676;23.262;2022-12-26T04:06:43;95510.22;;;3.31;100.00
12077;BME280;12420;42.676;23.262;2022-12-26T04:09:32;95505.84;;;3.24;100.00
12077;BME280;12420;42.676;23.262;2022-12-26T04:12:21;95491.09;;;3.12;100.00
12077;BME280;12420;42.676;23.262;2022-12-26T04:15:16;95492.78;;;3.19;100.00
12077;BME280;12420;42.676;23.262;2022-12-26T04:18:06;95489.88;;;3.22;100.00
12077;BME280;12420;42.676;23.262;2022-12-26T04:21:01;95427.44;;;2.84;100.00
12077;BME280;12420;42.676;23.262;2022-12-26T04:23:34;95474.06;;;3.17;100.00
12077;BME280;12420;42.676;23.262;2022-12-26T04:26:25;95462.25;;;3.11;100.00
12077;BME280;12420;42.676;23.262;2022-12-26T04:29:10;95475.75;;;3.24;100.00
12077;BME280;12420;42.676;23.262;2022-12-26T04:32:00;95483.47;;;3.25;100.00
12077;BME280;12420;42.676;23.262;2022-12-26T04:34:49;95480.13;;;3.31;100.00
12077;BME280;12420;42.676;23.262;2022-12-26T04:37:37;95450.38;;;3.14;100.00
12077;BME280;12420;42.676;23.262;2022-12-26T04:40:26;95490.63;;;3.41;100.00
12077;BME280;12420;42.676;23.262;2022-12-26T04:43:12;95500.97;;;3.46;100.00
12077;BME280;12420;42.676;23.262;2022-12-26T04:45:57;95473.59;;;3.28;100.00
12077;BME280;12420;42.676;23.262;2022-12-26T04:48:26;95506.44;;;3.46;100.00
12077;BME280;12420;42.676;23.262;2022-12-26T04:51:11;95478.94;;;3.32;100.00
12077;BME280;12420;42.676;23.262;2022-12-26T04:53:38;95492.44;;;3.35;100.00
12077;BME280;12420;42.676;23.262;2022-12-26T04:56:05;95511.44;;;3.48;100.00
12077;BME280;12420;42.676;23.262;2022-12-26T04:58:32;95504.91;;;3.45;100.00
12077;BME280;12420;42.676;23.262;2022-12-26T05:00:59;95491.25;;;3.09;100.00
12077;BME280;12420;42.676;23.262;2022-12-26T05:03:54;95489.13;;;3.03;100.00
12077;BME280;12420;42.676;23.262;2022-12-26T05:06:39;95516.78;;;2.96;100.00
12077;BME280;12420;42.676;23.262;2022-12-26T05:09:23;95444.31;;;2.73;100.00
12077;BME280;12420;42.676;23.262;2022-12-26T05:12:02;95489.44;;;3.06;100.00
12077;BME280;12420;42.676;23.262;2022-12-26T05:14:29;95512.06;;;3.24;100.00
12077;BME280;12420;42.676;23.262;2022-12-26T05:16:56;95483.34;;;2.92;100.00
12077;BME280;12420;42.676;23.262;2022-12-26T05:19:42;95524.53;;;3.25;100.00
12077;BME280;12420;42.676;23.262;2022-12-26T05:22:28;95523.19;;;3.21;100.00
12077;BME280;12420;42.676;23.262;2022-12-26T05:25:18;95522.25;;;3.24;100.00
12077;BME280;12420;42.676;23.262;2022-12-26T05:28:04;95546.41;;;3.35;100.00
12077;BME280;12420;42.676;23.262;2022-12-26T05:30:48;95548.97;;;3.38;100.00
12077;BME280;12420;42.676;23.262;2022-12-26T05:33:15;95521.66;;;3.11;100.00
12077;BME280;12420;42.676;23.262;2022-12-26T05:36:01;95527.72;;;3.15;100.00
12077;BME280;12420;42.676;23.262;2022-12-26T05:38:28;95540.94;;;3.25;100.00
12077;BME280;12420;42.676;23.262;2022-12-26T05:40:54;95483.97;;;2.96;100.00
12077;BME280;12420;42.676;23.262;2022-12-26T05:43:21;95539.28;;;3.37;100.00
12077;BME280;12420;42.676;23.262;2022-12-26T05:45:48;95410.28;;;2.37;100.00
12077;BME280;12420;42.676;23.262;2022-12-26T05:48:15;95437.31;;;2.63;100.00
12077;BME280;12420;42.676;23.262;2022-12-26T05:50:42;95530.16;;;3.31;100.00
12077;BME280;12420;42.676;23.262;2022-12-26T05:53:10;95513.00;;;3.21;100.00
12077;BME280;12420;42.676;23.262;2022-12-26T05:55:37;95529.53;;;3.27;100.00
12077;BME280;12420;42.676;23.262;2022-12-26T05:58:04;95513.72;;;3.13;100.00
12077;BME280;12420;42.676;23.262;2022-12-26T06:00:31;95495.97;;;2.99;100.00
12077;BME280;12420;42.676;23.262;2022-12-26T06:02:59;95533.03;;;3.09;100.00
12077;BME280;12420;42.676;23.262;2022-12-26T06:05:26;95535.47;;;3.07;100.00
12077;BME280;12420;42.676;23.262;2022-12-26T06:07:53;95453.84;;;2.32;100.00
12077;BME280;12420;42.676;23.262;2022-12-26T06:10:21;95547.47;;;3.10;100.00
12077;BME280;12420;42.676;23.262;2022-12-26T06:12:50;95523.47;;;2.86;100.00
12077;BME280;12420;42.676;23.262;2022-12-26T06:15:17;95500.22;;;2.81;100.00
12077;BME280;12420;42.676;23.262;2022-12-26T06:17:44;95523.47;;;2.95;100.00
12077;BME280;12420;42.676;23.262;2022-12-26T06:20:10;95556.47;;;3.29;100.00
12077;BME280;12420;42.676;23.262;2022-12-26T06:22:37;95551.28;;;3.40;100.00
12077;BME280;12420;42.676;23.262;2022-12-26T06:25:07;95557.19;;;3.47;100.00
12077;BME280;12420;42.676;23.262;2022-12-26T06:27:35;95557.81;;;3.42;100.00
12077;BME280;12420;42.676;23.262;2022-12-26T06:30:03;95509.78;;;3.14;100.00
12077;BME280;12420;42.676;23.262;2022-12-26T06:32:32;95581.84;;;3.57;100.00
12077;BME280;12420;42.676;23.262;2022-12-26T06:35:00;95579.41;;;3.59;100.00
12077;BME280;12420;42.676;23.262;2022-12-26T06:37:28;95562.81;;;3.53;100.00
12077;BME280;12420;42.676;23.262;2022-12-26T06:39:57;95563.44;;;3.57;100.00
12077;BME280;12420;42.676;23.262;2022-12-26T06:42:24;95563.75;;;3.59;100.00
12077;BME280;12420;42.676;23.262;2022-12-26T06:44:52;95548.38;;;3.53;100.00
12077;BME280;12420;42.676;23.262;2022-12-26T06:47:19;95532.56;;;3.38;100.00
12077;BME280;12420;42.676;23.262;2022-12-26T06:49:45;95564.78;;;3.80;100.00
12077;BME280;12420;42.676;23.262;2022-12-26T06:52:12;95473.63;;;3.19;100.00
12077;BME280;12420;42.676;23.262;2022-12-26T06:54:39;95553.81;;;3.71;100.00
12077;BME280;12420;42.676;23.262;2022-12-26T06:57:06;95577.78;;;4.04;100.00
12077;BME280;12420;42.676;23.262;2022-12-26T06:59:33;95573.50;;;4.12;100.00
12077;BME280;12420;42.676;23.262;2022-12-26T07:02:01;95578.97;;;4.21;100.00
12077;BME280;12420;42.676;23.262;2022-12-26T07:04:28;95555.31;;;4.00;100.00
12077;BME280;12420;42.676;23.262;2022-12-26T07:06:54;95608.66;;;4.23;100.00
12077;BME280;12420;42.676;23.262;2022-12-26T07:09:21;95625.22;;;4.38;100.00
12077;BME280;12420;42.676;23.262;2022-12-26T07:11:49;95588.25;;;4.66;100.00
12077;BME280;12420;42.676;23.262;2022-12-26T07:14:16;95564.53;;;4.54;100.00
12077;BME280;12420;42.676;23.262;2022-12-26T07:16:43;95613.91;;;4.78;100.00
12077;BME280;12420;42.676;23.262;2022-12-26T07:19:13;95598.81;;;4.83;100.00
12077;BME280;12420;42.676;23.262;2022-12-26T07:21:41;95596.66;;;4.87;100.00
12077;BME280;12420;42.676;23.262;2022-12-26T07:24:13;95616.31;;;4.85;100.00
12077;BME280;12420;42.676;23.262;2022-12-26T07:26:40;95555.97;;;4.61;100.00
12077;BME280;12420;42.676;23.262;2022-12-26T07:29:09;95604.50;;;5.03;100.00
12077;BME280;12420;42.676;23.262;2022-12-26T07:31:42;95486.44;;;4.16;100.00
12077;BME280;12420;42.676;23.262;2022-12-26T07:34:09;95589.59;;;4.95;100.00
12077;BME280;12420;42.676;23.262;2022-12-26T07:36:37;95568.16;;;4.60;100.00
12077;BME280;12420;42.676;23.262;2022-12-26T07:39:04;95558.75;;;5.09;100.00
12077;BME280;12420;42.676;23.262;2022-12-26T07:41:30;95605.59;;;5.44;100.00
12077;BME280;12420;42.676;23.262;2022-12-26T07:44:15;95595.59;;;5.56;100.00
12077;BME280;12420;42.676;23.262;2022-12-26T07:46:42;95591.81;;;5.69;100.00
12077;BME280;12420;42.676;23.262;2022-12-26T07:49:11;95597.63;;;5.71;100.00
12077;BME280;12420;42.676;23.262;2022-12-26T07:51:39;95615.03;;;5.68;100.00
12077;BME280;12420;42.676;23.262;2022-12-26T07:54:07;95597.41;;;5.74;100.00
12077;BME280;12420;42.676;23.262;2022-12-26T07:56:34;95587.47;;;5.77;100.00
12077;BME280;12420;42.676;23.262;2022-12-26T07:59:01;95496.13;;;5.22;100.00
12077;BME280;12420;42.676;23.262;2022-12-26T08:01:28;95502.28;;;5.32;100.00
12077;BME280;12420;42.676;23.262;2022-12-26T08:03:54;95446.22;;;5.09;100.00
12077;BME280;12420;42.676;23.262;2022-12-26T08:06:21;95599.50;;;5.79;100.00
12077;BME280;12420;42.676;23.262;2022-12-26T08:08:49;95593.59;;;6.25;100.00
12077;BME280;12420;42.676;23.262;2022-12-26T08:11:20;95584.66;;;6.45;100.00
12077;BME280;12420;42.676;23.262;2022-12-26T08:13:48;95586.81;;;6.56;100.00
12077;BME280;12420;42.676;23.262;2022-12-26T08:16:15;95599.06;;;6.55;100.00
12077;BME280;12420;42.676;23.262;2022-12-26T08:18:42;95584.84;;;6.57;100.00
12077;BME280;12420;42.676;23.262;2022-12-26T08:21:13;95590.34;;;6.57;100.00
12077;BME280;12420;42.676;23.262;2022-12-26T08:23:40;95597.94;;;6.62;100.00
12077;BME280;12420;42.676;23.262;2022-12-26T08:26:22;95570.16;;;6.45;100.00
12077;BME280;12420;42.676;23.262;2022-12-26T08:28:49;95605.50;;;6.67;100.00
12077;BME280;12420;42.676;23.262;2022-12-26T08:31:18;95591.78;;;6.52;100.00
12077;BME280;12420;42.676;23.262;2022-12-26T08:33:45;95608.06;;;6.56;100.00
12077;BME280;12420;42.676;23.262;2022-12-26T08:36:12;95551.28;;;6.38;100.00
12077;BME280;12420;42.676;23.262;2022-12-26T08:38:41;95589.16;;;6.78;100.00
12077;BME280;12420;42.676;23.262;2022-12-26T08:41:08;95556.81;;;6.73;100.00
12077;BME280;12420;42.676;23.262;2022-12-26T08:43:36;95575.81;;;6.91;100.00
12077;BME280;12420;42.676;23.262;2022-12-26T08:46:05;95595.91;;;7.12;100.00
12077;BME280;12420;42.676;23.262;2022-12-26T08:48:33;95583.22;;;7.21;100.00
12077;BME280;12420;42.676;23.262;2022-12-26T08:51:03;95566.66;;;7.15;100.00
12077;BME280;12420;42.676;23.262;2022-12-26T08:53:33;95568.28;;;7.27;100.00
12077;BME280;12420;42.676;23.262;2022-12-26T08:56:02;95568.97;;;7.22;100.00
12077;BME280;12420;42.676;23.262;2022-12-26T08:58:30;95572.00;;;7.24;100.00
12077;BME280;12420;42.676;23.262;2022-12-26T09:01:06;95481.97;;;6.69;100.00
12077;BME280;12420;42.676;23.262;2022-12-26T09:03:33;95561.38;;;7.37;100.00
12077;BME280;12420;42.676;23.262;2022-12-26T09:06:00;95569.88;;;7.34;100.00
12077;BME280;12420;42.676;23.262;2022-12-26T09:08:27;95559.00;;;7.25;100.00
12077;BME280;12420;42.676;23.262;2022-12-26T09:10:54;95569.06;;;7.28;100.00
12077;BME280;12420;42.676;23.262;2022-12-26T09:13:21;95540.75;;;7.07;100.00
12077;BME280;12420;42.676;23.262;2022-12-26T09:15:48;95566.09;;;7.31;100.00
12077;BME280;12420;42.676;23.262;2022-12-26T09:18:17;95578.75;;;7.23;100.00
12077;BME280;12420;42.676;23.262;2022-12-26T09:20:44;95530.22;;;7.05;100.00
12077;BME280;12420;42.676;23.262;2022-12-26T09:23:11;95563.22;;;7.20;100.00
12077;BME280;12420;42.676;23.262;2022-12-26T09:25:39;95562.31;;;7.29;100.00
12077;BME280;12420;42.676;23.262;2022-12-26T09:28:06;95567.25;;;7.25;100.00
12077;BME280;12420;42.676;23.262;2022-12-26T09:30:33;95582.88;;;7.33;100.00
12077;BME280;12420;42.676;23.262;2022-12-26T09:33:00;95564.09;;;7.32;100.00
12077;BME280;12420;42.676;23.262;2022-12-26T09:35:30;95563.13;;;7.14;100.00
12077;BME280;12420;42.676;23.262;2022-12-26T09:37:56;95555.13;;;7.16;100.00
12077;BME280;12420;42.676;23.262;2022-12-26T09:40:27;95513.16;;;6.81;100.00
12077;BME280;12420;42.676;23.262;2022-12-26T09:43:07;95543.94;;;7.20;100.00
12077;BME280;12420;42.676;23.262;2022-12-26T09:45:49;95563.34;;;7.31;100.00
12077;BME280;12420;42.676;23.262;2022-12-26T09:48:22;95559.59;;;7.34;100.00
12077;BME280;12420;42.676;23.262;2022-12-26T09:50:53;95552.88;;;7.35;100.00
12077;BME280;12420;42.676;23.262;2022-12-26T09:53:27;95554.44;;;7.42;100.00
12077;BME280;12420;42.676;23.262;2022-12-26T09:55:58;95555.81;;;7.52;100.00
12077;BME280;12420;42.676;23.262;2022-12-26T09:58:27;95537.16;;;7.42;100.00
12077;BME280;12420;42.676;23.262;2022-12-26T10:00:59;95550.09;;;7.56;100.00
12077;BME280;12420;42.676;23.262;2022-12-26T10:03:27;95552.31;;;7.52;100.00
12077;BME280;12420;42.676;23.262;2022-12-26T10:06:12;95549.19;;;7.65;100.00
12077;BME280;12420;42.676;23.262;2022-12-26T10:08:57;95544.03;;;7.78;100.00
12077;BME280;12420;42.676;23.262;2022-12-26T10:11:36;95538.59;;;7.83;100.00
12077;BME280;12420;42.676;23.262;2022-12-26T10:14:11;95534.59;;;7.85;100.00
12077;BME280;12420;42.676;23.262;2022-12-26T10:16:49;95519.03;;;7.81;99.60
12077;BME280;12420;42.676;23.262;2022-12-26T10:19:30;95534.81;;;8.07;99.41
12077;BME280;12420;42.676;23.262;2022-12-26T10:22:14;95416.25;;;7.44;98.42
12077;BME280;12420;42.676;23.262;2022-12-26T10:24:47;95502.94;;;8.06;98.21
12077;BME280;12420;42.676;23.262;2022-12-26T10:27:17;95506.28;;;8.16;97.33
12077;BME280;12420;42.676;23.262;2022-12-26T10:29:47;95472.28;;;7.93;95.65
12077;BME280;12420;42.676;23.262;2022-12-26T10:32:20;95515.44;;;8.33;96.59
12077;BME280;12420;42.676;23.262;2022-12-26T10:34:49;95520.59;;;8.46;96.42
12077;BME280;12420;42.676;23.262;2022-12-26T10:37:23;95508.81;;;8.45;95.85
12077;BME280;12420;42.676;23.262;2022-12-26T10:39:54;95508.56;;;8.49;95.42
12077;BME280;12420;42.676;23.262;2022-12-26T10:42:25;95504.38;;;8.59;95.23
12077;BME280;12420;42.676;23.262;2022-12-26T10:44:53;95500.59;;;8.57;93.80
12077;BME280;12420;42.676;23.262;2022-12-26T10:47:25;95508.16;;;8.67;92.73
12077;BME280;12420;42.676;23.262;2022-12-26T10:49:53;95506.22;;;8.74;93.28
12077;BME280;12420;42.676;23.262;2022-12-26T10:52:30;95503.25;;;8.83;94.32
12077;BME280;12420;42.676;23.262;2022-12-26T10:54:58;95415.38;;;8.27;91.80
12077;BME280;12420;42.676;23.262;2022-12-26T10:57:28;95495.06;;;9.05;92.37
12077;BME280;12420;42.676;23.262;2022-12-26T10:59:57;95443.69;;;8.65;91.67
12077;BME280;12420;42.676;23.262;2022-12-26T11:02:26;95480.91;;;8.81;92.99
12077;BME280;12420;42.676;23.262;2022-12-26T11:05:00;95466.38;;;8.86;98.83
12077;BME280;12420;42.676;23.262;2022-12-26T11:07:30;95484.78;;;9.06;94.69
12077;BME280;12420;42.676;23.262;2022-12-26T11:09:58;95441.56;;;8.91;91.12
12077;BME280;12420;42.676;23.262;2022-12-26T11:12:29;95457.47;;;8.65;90.66
12077;BME280;12420;42.676;23.262;2022-12-26T11:15:01;95492.38;;;9.22;91.05
12077;BME280;12420;42.676;23.262;2022-12-26T11:17:31;95440.56;;;9.00;89.82
12077;BME280;12420;42.676;23.262;2022-12-26T11:20:23;95476.59;;;9.34;89.42
12077;BME280;12420;42.676;23.262;2022-12-26T11:22:54;95473.84;;;9.34;87.67
12077;BME280;12420;42.676;23.262;2022-12-26T11:25:47;95455.44;;;9.20;88.85
12077;BME280;12420;42.676;23.262;2022-12-26T11:28:22;95426.28;;;9.07;87.94
12077;BME280;12420;42.676;23.262;2022-12-26T11:30:49;95461.03;;;9.48;88.46
12077;BME280;12420;42.676;23.262;2022-12-26T11:33:23;95467.84;;;9.58;87.04
12077;BME280;12420;42.676;23.262;2022-12-26T11:36:04;95466.63;;;9.65;88.10
12077;BME280;12420;42.676;23.262;2022-12-26T11:38:46;95469.88;;;9.69;90.27
12077;BME280;12420;42.676;23.262;2022-12-26T11:41:18;95454.53;;;9.79;93.19
12077;BME280;12420;42.676;23.262;2022-12-26T11:44:02;95461.34;;;9.84;85.61
12077;BME280;12420;42.676;23.262;2022-12-26T11:46:35;95463.88;;;9.98;86.47
12077;BME280;12420;42.676;23.262;2022-12-26T11:49:04;95430.19;;;9.89;84.78
12077;BME280;12420;42.676;23.262;2022-12-26T11:51:34;95449.53;;;10.11;83.54
12077;BME280;12420;42.676;23.262;2022-12-26T11:54:24;95447.00;;;10.19;87.06
12077;BME280;12420;42.676;23.262;2022-12-26T11:57:15;95448.78;;;10.11;82.65
12077;BME280;12420;42.676;23.262;2022-12-26T11:59:43;95440.25;;;10.03;84.51
12077;BME280;12420;42.676;23.262;2022-12-26T12:02:20;95444.00;;;10.06;85.25
12077;BME280;12420;42.676;23.262;2022-12-26T12:04:51;95431.94;;;9.97;83.93
12077;BME280;12420;42.676;23.262;2022-12-26T12:07:34;95425.16;;;9.98;84.40
12077;BME280;12420;42.676;23.262;2022-12-26T12:10:24;95424.66;;;10.28;89.53
12077;BME280;12420;42.676;23.262;2022-12-26T12:13:03;95386.91;;;10.19;83.64
12077;BME280;12420;42.676;23.262;2022-12-26T12:15:38;95416.53;;;10.53;84.88
12077;BME280;12420;42.676;23.262;2022-12-26T12:18:13;95413.75;;;10.53;86.19
12077;BME280;12420;42.676;23.262;2022-12-26T12:20:54;95428.06;;;10.74;82.20
12077;BME280;12420;42.676;23.262;2022-12-26T12:23:40;95329.81;;;10.22;86.62
12077;BME280;12420;42.676;23.262;2022-12-26T12:26:14;95422.75;;;10.81;79.52
12077;BME280;12420;42.676;23.262;2022-12-26T12:29:01;95407.94;;;10.68;79.38
12077;BME280;12420;42.676;23.262;2022-12-26T12:31:38;95406.47;;;10.55;79.72
12077;BME280;12420;42.676;23.262;2022-12-26T12:34:17;95420.03;;;10.64;80.42
12077;BME280;12420;42.676;23.262;2022-12-26T12:36:54;95414.44;;;10.76;86.89
12077;BME280;12420;42.676;23.262;2022-12-26T12:39:35;95405.16;;;10.68;83.42
12077;BME280;12420;42.676;23.262;2022-12-26T12:42:17;95422.97;;;10.89;80.14
12077;BME280;12420;42.676;23.262;2022-12-26T12:44:58;95425.72;;;10.95;78.96
12077;BME280;12420;42.676;23.262;2022-12-26T12:47:38;95395.88;;;10.65;78.05
12077;BME280;12420;42.676;23.262;2022-12-26T12:50:15;95425.72;;;10.95;83.88
12077;BME280;12420;42.676;23.262;2022-12-26T12:52:49;95425.22;;;10.91;78.33
12077;BME280;12420;42.676;23.262;2022-12-26T12:55:35;95429.34;;;10.67;78.31
12077;BME280;12420;42.676;23.262;2022-12-26T12:58:14;95437.81;;;10.86;80.08
12077;BME280;12420;42.676;23.262;2022-12-26T13:00:50;95443.03;;;11.06;81.75
12077;BME280;12420;42.676;23.262;2022-12-26T13:03:25;95420.31;;;11.14;78.35
12077;BME280;12420;42.676;23.262;2022-12-26T13:06:00;95342.72;;;10.72;88.76
12077;BME280;12420;42.676;23.262;2022-12-26T13:08:33;95414.69;;;11.30;83.59
12077;BME280;12420;42.676;23.262;2022-12-26T13:11:04;95407.09;;;11.42;85.58
12077;BME280;12420;42.676;23.262;2022-12-26T13:13:36;95416.44;;;11.34;79.40
12077;BME280;12420;42.676;23.262;2022-12-26T13:16:09;95427.34;;;11.20;75.92
12077;BME280;12420;42.676;23.262;2022-12-26T13:18:51;95341.25;;;10.71;77.73
12077;BME280;12420;42.676;23.262;2022-12-26T13:21:21;95422.94;;;11.42;80.37
12077;BME280;12420;42.676;23.262;2022-12-26T13:23:51;95418.44;;;11.39;77.55
12077;BME280;12420;42.676;23.262;2022-12-26T13:26:40;95415.75;;;11.22;75.00